sensor_id;sensor_type;location;lat;lon;timestamp;temperature;humidity
18450;DHT22;9354;50.194;7.690;2024-01-06T00:00:54;6.30;99.90
18450;DHT22;9354;50.194;7.690;2024-01-06T00:03:21;6.30;99.90
18450;DHT22;9354;50.194;7.690;2024-01-06T00:05:49;6.30;99.90
18450;DHT22;9354;50.194;7.690;2024-01-06T00:08:16;6.30;99.90
18450;DHT22;9354;50.194;7.690;2024-01-06T00:10:43;6.30;99.90
18450;DHT22;9354;50.194;7.690;2024-01-06T00:13:12;6.30;99.90
18450;DHT22;9354;50.194;7.690;2024-01-06T00:15:39;6.30;99.90
18450;DHT22;9354;50.194;7.690;2024-01-06T00:18:07;6.40;99.90
18450;DHT22;9354;50.194;7.690;2024-01-06T00:20:34;6.40;99.90
18450;DHT22;9354;50.194;7.690;2024-01-06T00:23:02;6.40;99.90
18450;DHT22;9354;50.194;7.690;2024-01-06T00:25:29;6.40;99.90
18450;DHT22;9354;50.194;7.690;2024-01-06T00:27:56;6.40;99.90
18450;DHT22;9354;50.194;7.690;2024-01-06T00:30:25;6.40;99.90
18450;DHT22;9354;50.194;7.690;2024-01-06T00:32:52;6.40;99.90
18450;DHT22;9354;50.194;7.690;2024-01-06T00:35:20;6.40;99.90
18450;DHT22;9354;50.194;7.690;2024-01-06T00:37:47;6.40;99.90
18450;DHT22;9354;50.194;7.690;2024-01-06T00:40:15;6.40;99.90
18450;DHT22;9354;50.194;7.690;2024-01-06T00:42:42;6.40;99.90
18450;DHT22;9354;50.194;7.690;2024-01-06T00:45:09;6.40;99.90
18450;DHT22;9354;50.194;7.690;2024-01-06T00:47:38;6.40;99.90
18450;DHT22;9354;50.194;7.690;2024-01-06T00:50:06;6.40;99.90
18450;DHT22;9354;50.194;7.690;2024-01-06T00:52:34;6.40;99.90
18450;DHT22;9354;50.194;7.690;2024-01-06T00:55:01;6.40;99.90
18450;DHT22;9354;50.194;7.690;2024-01-06T00:57:28;6.40;99.90
18450;DHT22;9354;50.194;7.690;2024-01-06T00:59:56;6.40;99.90
18450;DHT22;9354;50.194;7.690;2024-01-06T01:02:23;6.40;99.90
18450;DHT22;9354;50.194;7.690;2024-01-06T01:04:52;6.40;99.90
18450;DHT22;9354;50.194;7.690;2024-01-06T01:07:19;6.40;99.90
18450;DHT22;9354;50.194;7.690;2024-01-06T01:09:47;6.30;99.90
18450;DHT22;9354;50.194;7.690;2024-01-06T01:12:14;6.30;99.90
18450;DHT22;9354;50.194;7.690;2024-01-06T01:14:42;6.30;99.90
18450;DHT22;9354;50.194;7.690;2024-01-06T01:17:09;6.30;99.90
18450;DHT22;9354;50.194;7.690;2024-01-06T01:19:36;6.20;99.90
18450;DHT22;9354;50.194;7.690;2024-01-06T01:22:05;6.20;99.90
18450;DHT22;9354;50.194;7.690;2024-01-06T01:24:33;6.20;99.90
18450;DHT22;9354;50.194;7.690;2024-01-06T01:27:00;6.20;99.90
18450;DHT22;9354;50.194;7.690;2024-01-06T01:29:29;6.20;99.90
18450;DHT22;9354;50.194;7.690;2024-01-06T01:31:56;6.10;99.90
18450;DHT22;9354;50.194;7.690;2024-01-06T01:34:23;6.20;99.90
18450;DHT22;9354;50.194;7.690;2024-01-06T01:36:51;6.10;99.90
18450;DHT22;9354;50.194;7.690;2024-01-06T01:39:19;6.10;99.90
18450;DHT22;9354;50.194;7.690;2024-01-06T01:41:47;6.20;99.90
18450;DHT22;9354;50.194;7.690;2024-01-06T01:44:15;6.10;99.90
18450;DHT22;9354;50.194;7.690;2024-01-06T01:46:42;6.20;99.90
18450;DHT22;9354;50.194;7.690;2024-01-06T01:49:10;6.10;99.90
18450;DHT22;9354;50.194;7.690;2024-01-06T01:51:37;6.10;99.90
18450;DHT22;9354;50.194;7.690;2024-01-06T01:54:06;6.10;99.90
18450;DHT22;9354;50.194;7.690;2024-01-06T01:56:36;6.20;99.90
18450;DHT22;9354;50.194;7.690;2024-01-06T01:59:09;6.10;99.90
18450;DHT22;9354;50.194;7.690;2024-01-06T02:01:36;6.10;99.90
18450;DHT22;9354;50.194;7.690;2024-01-06T02:04:04;6.10;99.90
18450;DHT22;9354;50.194;7.690;2024-01-06T02:06:31;6.10;99.90
18450;DHT22;9354;50.194;7.690;2024-01-06T02:08:59;6.10;99.90
18450;DHT22;9354;50.194;7.690;2024-01-06T02:11:26;6.10;99.90
18450;DHT22;9354;50.194;7.690;2024-01-06T02:13:55;6.10;99.90
18450;DHT22;9354;50.194;7.690;2024-01-06T02:16:22;6.10;99.90
18450;DHT22;9354;50.194;7.690;2024-01-06T02:18:50;6.10;99.90
18450;DHT22;9354;50.194;7.690;2024-01-06T02:21:18;6.10;99.90
18450;DHT22;9354;50.194;7.690;2024-01-06T02:23:48;6.00;99.90
18450;DHT22;9354;50.194;7.690;2024-01-06T02:26:16;6.00;99.90
18450;DHT22;9354;50.194;7.690;2024-01-06T02:28:44;6.00;99.90
18450;DHT22;9354;50.194;7.690;2024-01-06T02:31:13;6.00;99.90
18450;DHT22;9354;50.194;7.690;2024-01-06T02:33:41;6.00;99.90
18450;DHT22;9354;50.194;7.690;2024-01-06T02:36:08;6.00;99.90
18450;DHT22;9354;50.194;7.690;2024-01-06T02:38:35;6.00;99.90
18450;DHT22;9354;50.194;7.690;2024-01-06T02:41:04;6.00;99.90
18450;DHT22;9354;50.194;7.690;2024-01-06T02:43:31;6.00;99.90
18450;DHT22;9354;50.194;7.690;2024-01-06T02:46:00;6.00;99.90
18450;DHT22;9354;50.194;7.690;2024-01-06T02:48:27;6.00;99.90
18450;DHT22;9354;50.194;7.690;2024-01-06T02:50:56;6.00;99.90
18450;DHT22;9354;50.194;7.690;2024-01-06T02:53:24;6.10;99.90
18450;DHT22;9354;50.194;7.690;2024-01-06T02:55:51;6.10;99.90
18450;DHT22;9354;50.194;7.690;2024-01-06T02:58:20;6.10;99.90
18450;DHT22;9354;50.194;7.690;2024-01-06T03:00:47;6.10;99.90
18450;DHT22;9354;50.194;7.690;2024-01-06T03:03:15;6.10;99.90
18450;DHT22;9354;50.194;7.690;2024-01-06T03:05:42;6.10;99.90
18450;DHT22;9354;50.194;7.690;2024-01-06T03:08:09;6.10;99.90
18450;DHT22;9354;50.194;7.690;2024-01-06T03:10:37;6.10;99.90
18450;DHT22;9354;50.194;7.690;2024-01-06T03:13:04;6.10;99.90
18450;DHT22;9354;50.194;7.690;2024-01-06T03:15:33;6.10;99.90
18450;DHT22;9354;50.194;7.690;2024-01-06T03:18:00;6.10;99.90
18450;DHT22;9354;50.194;7.690;2024-01-06T03:20:28;6.10;99.90
18450;DHT22;9354;50.194;7.690;2024-01-06T03:22:55;6.10;99.90
18450;DHT22;9354;50.194;7.690;2024-01-06T03:25:22;6.10;99.90
18450;DHT22;9354;50.194;7.690;2024-01-06T03:27:50;6.00;99.90
18450;DHT22;9354;50.194;7.690;2024-01-06T03:30:17;6.00;99.90
18450;DHT22;9354;50.194;7.690;2024-01-06T03:32:46;6.00;99.90
18450;DHT22;9354;50.194;7.690;2024-01-06T03:35:14;6.00;99.90
18450;DHT22;9354;50.194;7.690;2024-01-06T03:37:41;6.00;99.90
18450;DHT22;9354;50.194;7.690;2024-01-06T03:40:09;6.00;99.90
18450;DHT22;9354;50.194;7.690;2024-01-06T03:42:37;6.00;99.90
18450;DHT22;9354;50.194;7.690;2024-01-06T03:45:05;6.00;99.90
18450;DHT22;9354;50.194;7.690;2024-01-06T03:47:32;6.00;99.90
18450;DHT22;9354;50.194;7.690;2024-01-06T03:50:01;6.10;99.90
18450;DHT22;9354;50.194;7.690;2024-01-06T03:52:28;6.10;99.90
18450;DHT22;9354;50.194;7.690;2024-01-06T03:54:56;6.10;99.90
18450;DHT22;9354;50.194;7.690;2024-01-06T03:57:23;6.10;99.90
18450;DHT22;9354;50.194;7.690;2024-01-06T03:59:51;6.10;99.90
18450;DHT22;9354;50.194;7.690;2024-01-06T04:02:18;6.10;99.90
18450;DHT22;9354;50.194;7.690;2024-01-06T04:04:45;6.10;99.90
18450;DHT22;9354;50.194;7.690;2024-01-06T04:07:14;6.10;99.90
18450;DHT22;9354;50.194;7.690;2024-01-06T04:09:42;6.10;99.90
18450;DHT22;9354;50.194;7.690;2024-01-06T04:12:10;6.10;99.90
18450;DHT22;9354;50.194;7.690;2024-01-06T04:14:38;6.10;99.90
18450;DHT22;9354;50.194;7.690;2024-01-06T04:17:05;6.10;99.90
18450;DHT22;9354;50.194;7.690;2024-01-06T04:19:32;6.10;99.90
18450;DHT22;9354;50.194;7.690;2024-01-06T04:22:00;6.10;99.90
18450;DHT22;9354;50.194;7.690;2024-01-06T04:24:29;6.10;99.90
18450;DHT22;9354;50.194;7.690;2024-01-06T04:26:56;6.10;99.90
18450;DHT22;9354;50.194;7.690;2024-01-06T04:29:23;6.10;99.90
18450;DHT22;9354;50.194;7.690;2024-01-06T04:31:51;6.10;99.90
18450;DHT22;9354;50.194;7.690;2024-01-06T04:34:18;6.10;99.90
18450;DHT22;9354;50.194;7.690;2024-01-06T04:36:45;6.10;99.90
18450;DHT22;9354;50.194;7.690;2024-01-06T04:39:14;6.10;99.90
18450;DHT22;9354;50.194;7.690;2024-01-06T04:41:43;6.00;99.90
18450;DHT22;9354;50.194;7.690;2024-01-06T04:44:11;6.00;99.90
18450;DHT22;9354;50.194;7.690;2024-01-06T04:46:38;6.10;99.90
18450;DHT22;9354;50.194;7.690;2024-01-06T04:49:05;6.00;99.90
18450;DHT22;9354;50.194;7.690;2024-01-06T04:51:33;6.00;99.90
18450;DHT22;9354;50.194;7.690;2024-01-06T04:54:00;6.10;99.90
18450;DHT22;9354;50.194;7.690;2024-01-06T04:56:28;6.10;99.90
18450;DHT22;9354;50.194;7.690;2024-01-06T04:58:56;6.10;99.90
18450;DHT22;9354;50.194;7.690;2024-01-06T05:01:24;6.10;99.90
18450;DHT22;9354;50.194;7.690;2024-01-06T05:03:52;6.00;99.90
18450;DHT22;9354;50.194;7.690;2024-01-06T05:06:18;6.00;99.90
18450;DHT22;9354;50.194;7.690;2024-01-06T05:08:46;6.00;99.90
18450;DHT22;9354;50.194;7.690;2024-01-06T05:11:13;6.00;99.90
18450;DHT22;9354;50.194;7.690;2024-01-06T05:13:40;6.00;99.90
18450;DHT22;9354;50.194;7.690;2024-01-06T05:16:09;6.00;99.90
18450;DHT22;9354;50.194;7.690;2024-01-06T05:18:37;6.00;99.90
18450;DHT22;9354;50.194;7.690;2024-01-06T05:21:04;6.00;99.90
18450;DHT22;9354;50.194;7.690;2024-01-06T05:23:31;6.00;99.90
18450;DHT22;9354;50.194;7.690;2024-01-06T05:25:59;6.00;99.90
18450;DHT22;9354;50.194;7.690;2024-01-06T05:28:26;6.00;99.90
18450;DHT22;9354;50.194;7.690;2024-01-06T05:30:54;6.00;99.90
18450;DHT22;9354;50.194;7.690;2024-01-06T05:33:22;6.00;99.90
18450;DHT22;9354;50.194;7.690;2024-01-06T05:35:50;6.00;99.90
18450;DHT22;9354;50.194;7.690;2024-01-06T05:38:17;6.00;99.90
18450;DHT22;9354;50.194;7.690;2024-01-06T05:40:44;6.00;99.90
18450;DHT22;9354;50.194;7.690;2024-01-06T05:43:12;6.00;99.90
18450;DHT22;9354;50.194;7.690;2024-01-06T05:45:39;6.00;99.90
18450;DHT22;9354;50.194;7.690;2024-01-06T05:48:08;6.10;99.90
18450;DHT22;9354;50.194;7.690;2024-01-06T05:50:38;6.10;99.90
18450;DHT22;9354;50.194;7.690;2024-01-06T05:53:07;6.10;99.90
18450;DHT22;9354;50.194;7.690;2024-01-06T05:55:34;6.00;99.90
18450;DHT22;9354;50.194;7.690;2024-01-06T05:58:02;6.00;99.90
18450;DHT22;9354;50.194;7.690;2024-01-06T06:00:29;6.00;99.90
18450;DHT22;9354;50.194;7.690;2024-01-06T06:02:57;6.00;99.90
18450;DHT22;9354;50.194;7.690;2024-01-06T06:05:25;6.10;99.90
18450;DHT22;9354;50.194;7.690;2024-01-06T06:07:53;6.00;99.90
18450;DHT22;9354;50.194;7.690;2024-01-06T06:10:21;6.10;99.90
18450;DHT22;9354;50.194;7.690;2024-01-06T06:12:48;6.10;99.90
18450;DHT22;9354;50.194;7.690;2024-01-06T06:15:16;6.10;99.90
18450;DHT22;9354;50.194;7.690;2024-01-06T06:17:43;6.10;99.90
18450;DHT22;9354;50.194;7.690;2024-01-06T06:20:11;6.10;99.90
18450;DHT22;9354;50.194;7.690;2024-01-06T06:22:38;6.10;99.90
18450;DHT22;9354;50.194;7.690;2024-01-06T06:25:08;6.00;99.90
18450;DHT22;9354;50.194;7.690;2024-01-06T06:27:36;6.00;99.90
18450;DHT22;9354;50.194;7.690;2024-01-06T06:30:06;6.00;99.90
18450;DHT22;9354;50.194;7.690;2024-01-06T06:32:34;6.00;99.90
18450;DHT22;9354;50.194;7.690;2024-01-06T06:35:01;6.00;99.90
18450;DHT22;9354;50.194;7.690;2024-01-06T06:37:29;6.00;99.90
18450;DHT22;9354;50.194;7.690;2024-01-06T06:39:56;6.00;99.90
18450;DHT22;9354;50.194;7.690;2024-01-06T06:42:25;5.90;99.90
18450;DHT22;9354;50.194;7.690;2024-01-06T06:44:52;5.90;99.90
18450;DHT22;9354;50.194;7.690;2024-01-06T06:47:20;5.90;99.90
18450;DHT22;9354;50.194;7.690;2024-01-06T06:49:47;5.90;99.90
18450;DHT22;9354;50.194;7.690;2024-01-06T06:52:14;5.90;99.90
18450;DHT22;9354;50.194;7.690;2024-01-06T06:54:42;5.90;99.90
18450;DHT22;9354;50.194;7.690;2024-01-06T06:57:09;5.80;99.90
18450;DHT22;9354;50.194;7.690;2024-01-06T06:59:39;5.80;99.90
18450;DHT22;9354;50.194;7.690;2024-01-06T07:02:06;5.80;99.90
18450;DHT22;9354;50.194;7.690;2024-01-06T07:04:35;5.90;99.90
18450;DHT22;9354;50.194;7.690;2024-01-06T07:07:04;5.90;99.90
18450;DHT22;9354;50.194;7.690;2024-01-06T07:09:31;5.90;99.90
18450;DHT22;9354;50.194;7.690;2024-01-06T07:11:58;6.00;99.90
18450;DHT22;9354;50.194;7.690;2024-01-06T07:14:26;6.00;99.90
18450;DHT22;9354;50.194;7.690;2024-01-06T07:16:55;6.00;99.90
18450;DHT22;9354;50.194;7.690;2024-01-06T07:19:22;6.00;99.90
18450;DHT22;9354;50.194;7.690;2024-01-06T07:21:49;6.00;99.90
18450;DHT22;9354;50.194;7.690;2024-01-06T07:24:17;6.00;99.90
18450;DHT22;9354;50.194;7.690;2024-01-06T07:26:44;6.00;99.90
18450;DHT22;9354;50.194;7.690;2024-01-06T07:29:12;6.10;99.90
18450;DHT22;9354;50.194;7.690;2024-01-06T07:31:39;6.10;99.90
18450;DHT22;9354;50.194;7.690;2024-01-06T07:34:08;6.10;99.90
18450;DHT22;9354;50.194;7.690;2024-01-06T07:36:35;6.20;99.90
18450;DHT22;9354;50.194;7.690;2024-01-06T07:39:04;6.20;99.90
18450;DHT22;9354;50.194;7.690;2024-01-06T07:41:31;6.10;99.90
18450;DHT22;9354;50.194;7.690;2024-01-06T07:43:59;6.20;99.90
18450;DHT22;9354;50.194;7.690;2024-01-06T07:46:27;6.20;99.90
18450;DHT22;9354;50.194;7.690;2024-01-06T07:48:54;6.20;99.90
18450;DHT22;9354;50.194;7.690;2024-01-06T07:51:23;6.20;99.90
18450;DHT22;9354;50.194;7.690;2024-01-06T07:53:51;6.20;99.90
18450;DHT22;9354;50.194;7.690;2024-01-06T07:56:18;6.20;99.90
18450;DHT22;9354;50.194;7.690;2024-01-06T07:58:45;6.30;99.90
18450;DHT22;9354;50.194;7.690;2024-01-06T08:01:13;6.20;99.90
18450;DHT22;9354;50.194;7.690;2024-01-06T08:03:40;6.20;99.90
18450;DHT22;9354;50.194;7.690;2024-01-06T08:06:08;6.20;99.90
18450;DHT22;9354;50.194;7.690;2024-01-06T08:08:36;6.20;99.90
18450;DHT22;9354;50.194;7.690;2024-01-06T08:11:04;6.20;99.90
18450;DHT22;9354;50.194;7.690;2024-01-06T08:13:31;6.10;99.90
18450;DHT22;9354;50.194;7.690;2024-01-06T08:15:59;6.10;99.90
18450;DHT22;9354;50.194;7.690;2024-01-06T08:18:26;6.10;99.90
18450;DHT22;9354;50.194;7.690;2024-01-06T08:20:54;6.10;99.90
18450;DHT22;9354;50.194;7.690;2024-01-06T08:23:21;6.10;99.90
18450;DHT22;9354;50.194;7.690;2024-01-06T08:25:50;6.20;99.90
18450;DHT22;9354;50.194;7.690;2024-01-06T08:28:17;6.20;99.90
18450;DHT22;9354;50.194;7.690;2024-01-06T08:30:46;6.20;99.90
18450;DHT22;9354;50.194;7.690;2024-01-06T08:33:13;6.20;99.90
18450;DHT22;9354;50.194;7.690;2024-01-06T08:35:40;6.30;99.90
18450;DHT22;9354;50.194;7.690;2024-01-06T08:38:08;6.30;99.90
18450;DHT22;9354;50.194;7.690;2024-01-06T08:40:36;6.30;99.90
18450;DHT22;9354;50.194;7.690;2024-01-06T08:43:04;6.30;99.90
18450;DHT22;9354;50.194;7.690;2024-01-06T08:45:32;6.30;99.90
18450;DHT22;9354;50.194;7.690;2024-01-06T08:47:59;6.30;99.90
18450;DHT22;9354;50.194;7.690;2024-01-06T08:50:27;6.30;99.90
18450;DHT22;9354;50.194;7.690;2024-01-06T08:52:54;6.20;99.90
18450;DHT22;9354;50.194;7.690;2024-01-06T08:55:21;6.20;99.90
18450;DHT22;9354;50.194;7.690;2024-01-06T08:57:49;6.20;99.90
18450;DHT22;9354;50.194;7.690;2024-01-06T09:00:18;6.20;99.90
18450;DHT22;9354;50.194;7.690;2024-01-06T09:02:45;6.20;99.90
18450;DHT22;9354;50.194;7.690;2024-01-06T09:05:13;6.20;99.90
18450;DHT22;9354;50.194;7.690;2024-01-06T09:07:40;6.20;99.90
18450;DHT22;9354;50.194;7.690;2024-01-06T09:10:08;6.20;99.90
18450;DHT22;9354;50.194;7.690;2024-01-06T09:12:36;6.20;99.90
18450;DHT22;9354;50.194;7.690;2024-01-06T09:15:04;6.20;99.90
18450;DHT22;9354;50.194;7.690;2024-01-06T09:17:34;6.20;99.90
18450;DHT22;9354;50.194;7.690;2024-01-06T09:20:02;6.30;99.90
18450;DHT22;9354;50.194;7.690;2024-01-06T09:22:29;6.30;99.90
18450;DHT22;9354;50.194;7.690;2024-01-06T09:24:57;6.30;99.90
18450;DHT22;9354;50.194;7.690;2024-01-06T09:27:25;6.30;99.90
18450;DHT22;9354;50.194;7.690;2024-01-06T09:29:52;6.30;99.90
18450;DHT22;9354;50.194;7.690;2024-01-06T09:32:19;6.30;99.90
18450;DHT22;9354;50.194;7.690;2024-01-06T09:34:50;6.30;99.90
18450;DHT22;9354;50.194;7.690;2024-01-06T09:37:17;6.40;99.90
18450;DHT22;9354;50.194;7.690;2024-01-06T09:39:45;6.40;99.90
18450;DHT22;9354;50.194;7.690;2024-01-06T09:42:12;6.40;99.90
18450;DHT22;9354;50.194;7.690;2024-01-06T09:44:39;6.40;99.90
18450;DHT22;9354;50.194;7.690;2024-01-06T09:47:08;6.50;99.90
18450;DHT22;9354;50.194;7.690;2024-01-06T09:49:38;6.50;99.90
18450;DHT22;9354;50.194;7.690;2024-01-06T09:52:14;6.50;99.90
18450;DHT22;9354;50.194;7.690;2024-01-06T09:54:50;6.50;99.90
18450;DHT22;9354;50.194;7.690;2024-01-06T09:57:18;6.60;99.90
18450;DHT22;9354;50.194;7.690;2024-01-06T09:59:45;6.60;99.90
18450;DHT22;9354;50.194;7.690;2024-01-06T10:02:14;6.60;99.90
18450;DHT22;9354;50.194;7.690;2024-01-06T10:04:42;6.60;99.90
18450;DHT22;9354;50.194;7.690;2024-01-06T10:07:11;6.60;99.90
18450;DHT22;9354;50.194;7.690;2024-01-06T10:09:41;6.60;99.90
18450;DHT22;9354;50.194;7.690;2024-01-06T10:12:08;6.60;99.90
18450;DHT22;9354;50.194;7.690;2024-01-06T10:14:37;6.60;99.90
18450;DHT22;9354;50.194;7.690;2024-01-06T10:17:06;6.60;99.90
18450;DHT22;9354;50.194;7.690;2024-01-06T10:19:35;6.60;99.90
18450;DHT22;9354;50.194;7.690;2024-01-06T10:22:04;6.60;99.90
18450;DHT22;9354;50.194;7.690;2024-01-06T10:24:37;6.60;99.90
18450;DHT22;9354;50.194;7.690;2024-01-06T10:27:04;6.50;99.90
18450;DHT22;9354;50.194;7.690;2024-01-06T10:29:32;6.50;99.90
18450;DHT22;9354;50.194;7.690;2024-01-06T10:31:59;6.50;99.90
18450;DHT22;9354;50.194;7.690;2024-01-06T10:34:27;6.40;99.90
18450;DHT22;9354;50.194;7.690;2024-01-06T10:36:56;6.40;99.90
18450;DHT22;9354;50.194;7.690;2024-01-06T10:39:24;6.40;99.90
18450;DHT22;9354;50.194;7.690;2024-01-06T10:41:54;6.40;99.90
18450;DHT22;9354;50.194;7.690;2024-01-06T10:44:22;6.40;99.90
18450;DHT22;9354;50.194;7.690;2024-01-06T10:46:51;6.40;99.90
18450;DHT22;9354;50.194;7.690;2024-01-06T10:49:20;6.40;99.90
18450;DHT22;9354;50.194;7.690;2024-01-06T10:51:49;6.40;99.90
18450;DHT22;9354;50.194;7.690;2024-01-06T10:54:18;6.40;99.90
18450;DHT22;9354;50.194;7.690;2024-01-06T10:56:46;6.40;99.90
18450;DHT22;9354;50.194;7.690;2024-01-06T10:59:15;6.40;99.90
18450;DHT22;9354;50.194;7.690;2024-01-06T11:01:44;6.40;99.90
18450;DHT22;9354;50.194;7.690;2024-01-06T11:04:12;6.40;99.90
18450;DHT22;9354;50.194;7.690;2024-01-06T11:06:40;6.30;99.90
18450;DHT22;9354;50.194;7.690;2024-01-06T11:09:11;6.40;99.90
18450;DHT22;9354;50.194;7.690;2024-01-06T11:11:41;6.30;99.90
18450;DHT22;9354;50.194;7.690;2024-01-06T11:14:20;6.30;99.90
18450;DHT22;9354;50.194;7.690;2024-01-06T11:16:48;6.20;99.90
18450;DHT22;9354;50.194;7.690;2024-01-06T11:19:43;6.20;99.90
18450;DHT22;9354;50.194;7.690;2024-01-06T11:22:25;6.20;99.90
18450;DHT22;9354;50.194;7.690;2024-01-06T11:24:55;6.20;99.90
18450;DHT22;9354;50.194;7.690;2024-01-06T11:27:24;6.20;99.90
18450;DHT22;9354;50.194;7.690;2024-01-06T11:29:56;6.10;99.90
18450;DHT22;9354;50.194;7.690;2024-01-06T11:32:28;6.20;99.90
18450;DHT22;9354;50.194;7.690;2024-01-06T11:35:04;6.20;99.90
18450;DHT22;9354;50.194;7.690;2024-01-06T11:37:36;6.20;99.90
18450;DHT22;9354;50.194;7.690;2024-01-06T11:40:08;6.10;99.90
18450;DHT22;9354;50.194;7.690;2024-01-06T11:42:36;6.10;99.90
18450;DHT22;9354;50.194;7.690;2024-01-06T11:45:06;6.00;99.90
18450;DHT22;9354;50.194;7.690;2024-01-06T11:47:33;6.00;99.90
18450;DHT22;9354;50.194;7.690;2024-01-06T11:50:02;5.90;99.90
18450;DHT22;9354;50.194;7.690;2024-01-06T11:52:31;5.90;99.90
18450;DHT22;9354;50.194;7.690;2024-01-06T11:54:59;5.90;99.90
18450;DHT22;9354;50.194;7.690;2024-01-06T11:57:27;5.80;99.90
18450;DHT22;9354;50.194;7.690;2024-01-06T11:59:55;5.80;99.90
18450;DHT22;9354;50.194;7.690;2024-01-06T12:02:24;5.80;99.90
18450;DHT22;9354;50.194;7.690;2024-01-06T12:04:52;5.80;99.90
18450;DHT22;9354;50.194;7.690;2024-01-06T12:07:20;5.80;99.90
18450;DHT22;9354;50.194;7.690;2024-01-06T12:09:48;5.80;99.90
18450;DHT22;9354;50.194;7.690;2024-01-06T12:12:17;5.80;99.90
18450;DHT22;9354;50.194;7.690;2024-01-06T12:14:44;5.90;99.90
18450;DHT22;9354;50.194;7.690;2024-01-06T12:17:13;5.80;99.90
18450;DHT22;9354;50.194;7.690;2024-01-06T12:19:42;5.80;99.90
18450;DHT22;9354;50.194;7.690;2024-01-06T12:22:12;5.80;99.90
18450;DHT22;9354;50.194;7.690;2024-01-06T12:24:40;5.70;99.90
18450;DHT22;9354;50.194;7.690;2024-01-06T12:27:10;5.70;99.90
18450;DHT22;9354;50.194;7.690;2024-01-06T12:29:38;5.70;99.90
18450;DHT22;9354;50.194;7.690;2024-01-06T12:32:06;5.70;99.90
18450;DHT22;9354;50.194;7.690;2024-01-06T12:34:34;5.70;99.90
18450;DHT22;9354;50.194;7.690;2024-01-06T12:37:03;5.70;99.90
18450;DHT22;9354;50.194;7.690;2024-01-06T12:39:31;5.70;99.90
18450;DHT22;9354;50.194;7.690;2024-01-06T12:41:58;5.70;99.90
18450;DHT22;9354;50.194;7.690;2024-01-06T12:44:27;5.80;99.90
18450;DHT22;9354;50.194;7.690;2024-01-06T12:46:54;5.80;99.90
18450;DHT22;9354;50.194;7.690;2024-01-06T12:49:22;5.80;99.90
18450;DHT22;9354;50.194;7.690;2024-01-06T12:51:49;5.80;99.90
18450;DHT22;9354;50.194;7.690;2024-01-06T12:54:18;5.80;99.90
18450;DHT22;9354;50.194;7.690;2024-01-06T12:56:46;5.80;99.90
18450;DHT22;9354;50.194;7.690;2024-01-06T12:59:13;5.80;99.90
18450;DHT22;9354;50.194;7.690;2024-01-06T13:01:41;5.80;99.90
18450;DHT22;9354;50.194;7.690;2024-01-06T13:04:09;5.70;99.90
18450;DHT22;9354;50.194;7.690;2024-01-06T13:06:36;5.80;99.90
18450;DHT22;9354;50.194;7.690;2024-01-06T13:09:04;5.80;99.90
18450;DHT22;9354;50.194;7.690;2024-01-06T13:11:34;5.80;99.90
18450;DHT22;9354;50.194;7.690;2024-01-06T13:14:02;5.80;99.90
18450;DHT22;9354;50.194;7.690;2024-01-06T13:16:29;5.70;99.90
18450;DHT22;9354;50.194;7.690;2024-01-06T13:18:57;5.70;99.90
18450;DHT22;9354;50.194;7.690;2024-01-06T13:21:25;5.70;99.90
18450;DHT22;9354;50.194;7.690;2024-01-06T13:23:54;5.60;99.90
18450;DHT22;9354;50.194;7.690;2024-01-06T13:26:27;5.60;99.90
18450;DHT22;9354;50.194;7.690;2024-01-06T13:28:56;5.50;99.90
18450;DHT22;9354;50.194;7.690;2024-01-06T13:31:23;5.50;99.90
18450;DHT22;9354;50.194;7.690;2024-01-06T13:33:51;5.40;99.90
18450;DHT22;9354;50.194;7.690;2024-01-06T13:36:20;5.40;99.90
18450;DHT22;9354;50.194;7.690;2024-01-06T13:38:47;5.40;99.90
18450;DHT22;9354;50.194;7.690;2024-01-06T13:41:15;5.40;99.90
18450;DHT22;9354;50.194;7.690;2024-01-06T13:43:42;5.40;99.90
18450;DHT22;9354;50.194;7.690;2024-01-06T13:46:12;5.30;99.90
18450;DHT22;9354;50.194;7.690;2024-01-06T13:48:40;5.30;99.90
18450;DHT22;9354;50.194;7.690;2024-01-06T13:51:07;5.30;99.90
18450;DHT22;9354;50.194;7.690;2024-01-06T13:53:35;5.40;99.90
18450;DHT22;9354;50.194;7.690;2024-01-06T13:56:03;5.40;99.90
18450;DHT22;9354;50.194;7.690;2024-01-06T13:58:30;5.40;99.90
18450;DHT22;9354;50.194;7.690;2024-01-06T14:00:58;5.30;99.90
18450;DHT22;9354;50.194;7.690;2024-01-06T14:03:27;5.30;99.90
18450;DHT22;9354;50.194;7.690;2024-01-06T14:05:54;5.30;99.90
18450;DHT22;9354;50.194;7.690;2024-01-06T14:08:21;5.20;99.90
18450;DHT22;9354;50.194;7.690;2024-01-06T14:10:50;5.30;99.90
18450;DHT22;9354;50.194;7.690;2024-01-06T14:13:17;5.20;99.90
18450;DHT22;9354;50.194;7.690;2024-01-06T14:15:45;5.30;99.90
18450;DHT22;9354;50.194;7.690;2024-01-06T14:18:12;5.30;99.90
18450;DHT22;9354;50.194;7.690;2024-01-06T14:20:43;5.30;99.90
18450;DHT22;9354;50.194;7.690;2024-01-06T14:23:10;5.30;99.90
18450;DHT22;9354;50.194;7.690;2024-01-06T14:25:39;5.20;99.90
18450;DHT22;9354;50.194;7.690;2024-01-06T14:28:06;5.30;99.90
18450;DHT22;9354;50.194;7.690;2024-01-06T14:30:34;5.30;99.90
18450;DHT22;9354;50.194;7.690;2024-01-06T14:33:01;5.30;99.90
18450;DHT22;9354;50.194;7.690;2024-01-06T14:35:28;5.30;99.90
18450;DHT22;9354;50.194;7.690;2024-01-06T14:37:57;5.30;99.90
18450;DHT22;9354;50.194;7.690;2024-01-06T14:40:25;5.30;99.90
18450;DHT22;9354;50.194;7.690;2024-01-06T14:42:52;5.30;99.90
18450;DHT22;9354;50.194;7.690;2024-01-06T14:45:19;5.30;99.90
18450;DHT22;9354;50.194;7.690;2024-01-06T14:47:48;5.30;99.90
18450;DHT22;9354;50.194;7.690;2024-01-06T14:50:16;5.40;99.90
18450;DHT22;9354;50.194;7.690;2024-01-06T14:52:44;5.40;99.90
18450;DHT22;9354;50.194;7.690;2024-01-06T14:55:13;5.30;99.90
18450;DHT22;9354;50.194;7.690;2024-01-06T14:57:41;5.40;99.90
18450;DHT22;9354;50.194;7.690;2024-01-06T15:00:09;5.40;99.90
18450;DHT22;9354;50.194;7.690;2024-01-06T15:02:37;5.40;99.90
18450;DHT22;9354;50.194;7.690;2024-01-06T15:05:06;5.40;99.90
18450;DHT22;9354;50.194;7.690;2024-01-06T15:07:34;5.30;99.90
18450;DHT22;9354;50.194;7.690;2024-01-06T15:10:01;5.30;99.90
18450;DHT22;9354;50.194;7.690;2024-01-06T15:12:31;5.30;99.90
18450;DHT22;9354;50.194;7.690;2024-01-06T15:14:58;5.40;99.90
18450;DHT22;9354;50.194;7.690;2024-01-06T15:17:26;5.30;99.90
18450;DHT22;9354;50.194;7.690;2024-01-06T15:19:53;5.40;99.90
18450;DHT22;9354;50.194;7.690;2024-01-06T15:22:20;5.30;99.90
18450;DHT22;9354;50.194;7.690;2024-01-06T15:24:49;5.40;99.90
18450;DHT22;9354;50.194;7.690;2024-01-06T15:27:17;5.40;99.90
18450;DHT22;9354;50.194;7.690;2024-01-06T15:29:46;5.40;99.90
18450;DHT22;9354;50.194;7.690;2024-01-06T15:32:13;5.30;99.90
18450;DHT22;9354;50.194;7.690;2024-01-06T15:34:40;5.30;99.90
18450;DHT22;9354;50.194;7.690;2024-01-06T15:37:08;5.30;99.90
18450;DHT22;9354;50.194;7.690;2024-01-06T15:39:35;5.30;99.90
18450;DHT22;9354;50.194;7.690;2024-01-06T15:42:03;5.20;99.90
18450;DHT22;9354;50.194;7.690;2024-01-06T15:44:31;5.20;99.90
18450;DHT22;9354;50.194;7.690;2024-01-06T15:47:01;5.10;99.90
18450;DHT22;9354;50.194;7.690;2024-01-06T15:49:28;5.10;99.90
18450;DHT22;9354;50.194;7.690;2024-01-06T15:51:56;5.00;99.90
18450;DHT22;9354;50.194;7.690;2024-01-06T15:54:24;5.00;99.90
18450;DHT22;9354;50.194;7.690;2024-01-06T15:56:53;5.00;99.90
18450;DHT22;9354;50.194;7.690;2024-01-06T15:59:21;5.00;99.90
18450;DHT22;9354;50.194;7.690;2024-01-06T16:01:48;5.00;99.90
18450;DHT22;9354;50.194;7.690;2024-01-06T16:04:17;5.00;99.90
18450;DHT22;9354;50.194;7.690;2024-01-06T16:06:44;5.00;99.90